GLO1337 SBDN-SBSP
Flight info
| Callsign | GLO1337 |
|---|---|
| Flight time | 0h 51m |
| Altitude | 31000 |
| Route | ENVAP2A TOPUX DCT ESILO UZ65 EDMOX DCT UTLOT ORESU1A |
| Aircraft | B738/M-SDFGIKLORWXY/LB1 |
Departure
| Time | 2026-04-20 17:18 |
|---|---|
| Airport | Presidente Prudente Airport (SBDN) |
Arrival
| Time | 2026-04-20 18:09 |
|---|---|
| Airport | Congonhas–Deputado Freitas Nobre Airport (SBSP) |
| Time | Latitude | Longitude | Altitude | Speed | Heading |
|---|---|---|---|---|---|
| 2026-04-20 16:58 | -22.17786 | -51.41790 | 1486 ft | 0 kts | 188° |
| 2026-04-20 17:08 | -22.17784 | -51.41790 | 1486 ft | 1 kts | 188° |
| 2026-04-20 17:09 | -22.17761 | -51.41786 | 1482 ft | 4 kts | 200° |
| 2026-04-20 17:09 | -22.17748 | -51.41778 | 1472 ft | 4 kts | 241° |
| 2026-04-20 17:09 | -22.17744 | -51.41753 | 1472 ft | 4 kts | 278° |
| 2026-04-20 17:09 | -22.17746 | -51.41744 | 1474 ft | 0 kts | 278° |
| 2026-04-20 17:12 | -22.17745 | -51.41747 | 1474 ft | 1 kts | 278° |
| 2026-04-20 17:12 | -22.17743 | -51.41765 | 1469 ft | 4 kts | 278° |
| 2026-04-20 17:12 | -22.17739 | -51.41798 | 1471 ft | 5 kts | 277° |
| 2026-04-20 17:13 | -22.17734 | -51.41844 | 1480 ft | 7 kts | 276° |
| 2026-04-20 17:13 | -22.17728 | -51.41901 | 1483 ft | 9 kts | 275° |
| 2026-04-20 17:13 | -22.17720 | -51.41970 | 1476 ft | 10 kts | 277° |
| 2026-04-20 17:13 | -22.17713 | -51.42055 | 1481 ft | 12 kts | 274° |
| 2026-04-20 17:14 | -22.17702 | -51.42149 | 1477 ft | 14 kts | 277° |
| 2026-04-20 17:14 | -22.17686 | -51.42258 | 1473 ft | 15 kts | 279° |
| 2026-04-20 17:14 | -22.17673 | -51.42360 | 1471 ft | 13 kts | 277° |
| 2026-04-20 17:14 | -22.17658 | -51.42458 | 1469 ft | 14 kts | 280° |
| 2026-04-20 17:15 | -22.17643 | -51.42567 | 1464 ft | 16 kts | 278° |
| 2026-04-20 17:15 | -22.17625 | -51.42697 | 1456 ft | 19 kts | 278° |
| 2026-04-20 17:15 | -22.17604 | -51.42845 | 1449 ft | 21 kts | 278° |
| 2026-04-20 17:15 | -22.17584 | -51.42988 | 1442 ft | 20 kts | 278° |
| 2026-04-20 17:16 | -22.17568 | -51.43106 | 1428 ft | 17 kts | 279° |
| 2026-04-20 17:16 | -22.17549 | -51.43239 | 1430 ft | 19 kts | 278° |
| 2026-04-20 17:16 | -22.17522 | -51.43383 | 1423 ft | 16 kts | 298° |
| 2026-04-20 17:16 | -22.17441 | -51.43435 | 1422 ft | 12 kts | 343° |
| 2026-04-20 17:17 | -22.17378 | -51.43447 | 1423 ft | 5 kts | 34° |
| 2026-04-20 17:17 | -22.17371 | -51.43414 | 1425 ft | 4 kts | 90° |
| 2026-04-20 17:17 | -22.17376 | -51.43381 | 1427 ft | 4 kts | 101° |
| 2026-04-20 17:17 | -22.17389 | -51.43288 | 1433 ft | 39 kts | 98° |
| 2026-04-20 17:18 | -22.17469 | -51.42718 | 1458 ft | 112 kts | 98° |
| 2026-04-20 17:18 | -22.17619 | -51.41658 | 1519 ft | 169 kts | 98° |
| 2026-04-20 17:18 | -22.17803 | -51.40392 | 2305 ft | 172 kts | 97° |
| 2026-04-20 17:18 | -22.17991 | -51.39101 | 3093 ft | 185 kts | 97° |
| 2026-04-20 17:19 | -22.18191 | -51.37623 | 3554 ft | 210 kts | 96° |
| 2026-04-20 17:19 | -22.18409 | -51.36028 | 4131 ft | 218 kts | 97° |
| 2026-04-20 17:19 | -22.18631 | -51.34406 | 4855 ft | 221 kts | 97° |
| 2026-04-20 17:19 | -22.18860 | -51.32735 | 5510 ft | 229 kts | 97° |
| 2026-04-20 17:20 | -22.19066 | -51.30966 | 5868 ft | 257 kts | 96° |
| 2026-04-20 17:20 | -22.19264 | -51.28952 | 6326 ft | 279 kts | 95° |
| 2026-04-20 17:20 | -22.19464 | -51.26840 | 7126 ft | 284 kts | 95° |
| 2026-04-20 17:20 | -22.19664 | -51.24726 | 8103 ft | 284 kts | 95° |
| 2026-04-20 17:21 | -22.19866 | -51.22596 | 9027 ft | 286 kts | 96° |
| 2026-04-20 17:21 | -22.20072 | -51.20445 | 9907 ft | 290 kts | 96° |
| 2026-04-20 17:21 | -22.20280 | -51.18277 | 10683 ft | 296 kts | 96° |
| 2026-04-20 17:21 | -22.20502 | -51.15973 | 10935 ft | 321 kts | 96° |
| 2026-04-20 17:22 | -22.20738 | -51.13530 | 11471 ft | 332 kts | 96° |
| 2026-04-20 17:22 | -22.20978 | -51.11041 | 12241 ft | 334 kts | 96° |
| 2026-04-20 17:22 | -22.21220 | -51.08535 | 13049 ft | 337 kts | 96° |
| 2026-04-20 17:22 | -22.21461 | -51.06027 | 13776 ft | 342 kts | 96° |
| 2026-04-20 17:23 | -22.21708 | -51.03460 | 14435 ft | 345 kts | 96° |
| 2026-04-20 17:23 | -22.21957 | -51.00866 | 15077 ft | 350 kts | 96° |
| 2026-04-20 17:23 | -22.22210 | -50.98235 | 15700 ft | 355 kts | 96° |
| 2026-04-20 17:23 | -22.22465 | -50.95571 | 16300 ft | 360 kts | 96° |
| 2026-04-20 17:24 | -22.22723 | -50.92871 | 17002 ft | 362 kts | 96° |
| 2026-04-20 17:24 | -22.22983 | -50.90144 | 17570 ft | 369 kts | 97° |
| 2026-04-20 17:24 | -22.23249 | -50.87362 | 18101 ft | 376 kts | 97° |
| 2026-04-20 17:24 | -22.23515 | -50.84551 | 18725 ft | 377 kts | 97° |
| 2026-04-20 17:25 | -22.23785 | -50.81709 | 19256 ft | 382 kts | 97° |
| 2026-04-20 17:25 | -22.24058 | -50.78832 | 19741 ft | 388 kts | 96° |
| 2026-04-20 17:25 | -22.24329 | -50.75959 | 20257 ft | 392 kts | 97° |
| 2026-04-20 17:25 | -22.24608 | -50.73009 | 20807 ft | 395 kts | 96° |
| 2026-04-20 17:26 | -22.24888 | -50.70044 | 21347 ft | 399 kts | 96° |
| 2026-04-20 17:26 | -22.25169 | -50.67048 | 21863 ft | 403 kts | 96° |
| 2026-04-20 17:26 | -22.25454 | -50.64019 | 22306 ft | 409 kts | 96° |
| 2026-04-20 17:26 | -22.25740 | -50.60951 | 22876 ft | 411 kts | 97° |
| 2026-04-20 17:27 | -22.26024 | -50.57908 | 23377 ft | 414 kts | 96° |
| 2026-04-20 17:27 | -22.26314 | -50.54795 | 23803 ft | 419 kts | 97° |
| 2026-04-20 17:27 | -22.26606 | -50.51658 | 24231 ft | 421 kts | 97° |
| 2026-04-20 17:27 | -22.26900 | -50.48497 | 24663 ft | 424 kts | 97° |
| 2026-04-20 17:28 | -22.27194 | -50.45319 | 25091 ft | 426 kts | 97° |
| 2026-04-20 17:28 | -22.27493 | -50.42122 | 25496 ft | 429 kts | 98° |
| 2026-04-20 17:28 | -22.27991 | -50.38931 | 25917 ft | 430 kts | 104° |
| 2026-04-20 17:28 | -22.28689 | -50.35781 | 26320 ft | 432 kts | 107° |
| 2026-04-20 17:29 | -22.29463 | -50.32639 | 26718 ft | 435 kts | 107° |
| 2026-04-20 17:29 | -22.30255 | -50.29476 | 27111 ft | 437 kts | 107° |
| 2026-04-20 17:29 | -22.31025 | -50.26335 | 27580 ft | 437 kts | 107° |
| 2026-04-20 17:29 | -22.31783 | -50.23158 | 28156 ft | 435 kts | 107° |
| 2026-04-20 17:30 | -22.32519 | -50.20000 | 28709 ft | 434 kts | 107° |
| 2026-04-20 17:30 | -22.33246 | -50.16837 | 29216 ft | 433 kts | 107° |
| 2026-04-20 17:30 | -22.33965 | -50.13677 | 29700 ft | 434 kts | 107° |
| 2026-04-20 17:30 | -22.34682 | -50.10514 | 30204 ft | 433 kts | 107° |
| 2026-04-20 17:31 | -22.35395 | -50.07361 | 30654 ft | 431 kts | 107° |
| 2026-04-20 17:31 | -22.36107 | -50.04212 | 30993 ft | 433 kts | 107° |
| 2026-04-20 17:31 | -22.36819 | -50.01060 | 30991 ft | 430 kts | 107° |
| 2026-04-20 17:32 | -22.38232 | -49.94805 | 31022 ft | 431 kts | 108° |
| 2026-04-20 17:32 | -22.39654 | -49.88504 | 31039 ft | 432 kts | 108° |
| 2026-04-20 17:33 | -22.41077 | -49.82182 | 31025 ft | 433 kts | 107° |
| 2026-04-20 17:33 | -22.42502 | -49.75840 | 31020 ft | 433 kts | 107° |
| 2026-04-20 17:34 | -22.43913 | -49.69547 | 31019 ft | 433 kts | 108° |
| 2026-04-20 17:34 | -22.45328 | -49.63220 | 31018 ft | 432 kts | 108° |
| 2026-04-20 17:35 | -22.46737 | -49.56913 | 31019 ft | 431 kts | 108° |
| 2026-04-20 17:35 | -22.48142 | -49.50608 | 31022 ft | 430 kts | 108° |
| 2026-04-20 17:36 | -22.49544 | -49.44309 | 31026 ft | 430 kts | 108° |
| 2026-04-20 17:36 | -22.50014 | -49.41102 | 31011 ft | 436 kts | 94° |
| 2026-04-20 17:36 | -22.49726 | -49.37827 | 31038 ft | 441 kts | 80° |
| 2026-04-20 17:36 | -22.48703 | -49.34684 | 31033 ft | 447 kts | 65° |
| 2026-04-20 17:37 | -22.47252 | -49.31757 | 31056 ft | 447 kts | 63° |
| 2026-04-20 17:37 | -22.44224 | -49.25872 | 31072 ft | 448 kts | 63° |
| 2026-04-20 17:38 | -22.41276 | -49.19933 | 31082 ft | 448 kts | 64° |
| 2026-04-20 17:38 | -22.38730 | -49.13813 | 31096 ft | 444 kts | 77° |
| 2026-04-20 17:39 | -22.37185 | -49.07362 | 31108 ft | 443 kts | 79° |
| 2026-04-20 17:39 | -22.35675 | -49.00907 | 31103 ft | 443 kts | 78° |
| 2026-04-20 17:40 | -22.34119 | -48.94453 | 31101 ft | 443 kts | 78° |
| 2026-04-20 17:40 | -22.32551 | -48.88049 | 31081 ft | 443 kts | 78° |
| 2026-04-20 17:41 | -22.30973 | -48.81624 | 31062 ft | 442 kts | 78° |
| 2026-04-20 17:41 | -22.29394 | -48.75200 | 31040 ft | 442 kts | 78° |
| 2026-04-20 17:42 | -22.27817 | -48.68793 | 31016 ft | 442 kts | 78° |
| 2026-04-20 17:42 | -22.26334 | -48.62360 | 31004 ft | 439 kts | 85° |
| 2026-04-20 17:42 | -22.26197 | -48.59096 | 31018 ft | 433 kts | 97° |
| 2026-04-20 17:43 | -22.26576 | -48.55886 | 31015 ft | 429 kts | 107° |
| 2026-04-20 17:43 | -22.28408 | -48.49805 | 31025 ft | 425 kts | 113° |
| 2026-04-20 17:44 | -22.30360 | -48.43807 | 31017 ft | 426 kts | 112° |
| 2026-04-20 17:44 | -22.32291 | -48.37751 | 31015 ft | 426 kts | 112° |
| 2026-04-20 17:45 | -22.34197 | -48.31676 | 31023 ft | 427 kts | 111° |
| 2026-04-20 17:45 | -22.36093 | -48.25600 | 31016 ft | 427 kts | 111° |
| 2026-04-20 17:46 | -22.37988 | -48.19524 | 31026 ft | 426 kts | 111° |
| 2026-04-20 17:46 | -22.39879 | -48.13448 | 31031 ft | 426 kts | 111° |
| 2026-04-20 17:47 | -22.41769 | -48.07371 | 31025 ft | 427 kts | 111° |
| 2026-04-20 17:47 | -22.43646 | -48.01322 | 31026 ft | 427 kts | 111° |
| 2026-04-20 17:48 | -22.45532 | -47.95237 | 31030 ft | 427 kts | 110° |
| 2026-04-20 17:48 | -22.47507 | -47.89190 | 31016 ft | 425 kts | 120° |
| 2026-04-20 17:48 | -22.49192 | -47.86600 | 31048 ft | 420 kts | 132° |
| 2026-04-20 17:49 | -22.51071 | -47.84179 | 31028 ft | 420 kts | 132° |
| 2026-04-20 17:49 | -22.54818 | -47.79317 | 31030 ft | 419 kts | 131° |
| 2026-04-20 17:49 | -22.56635 | -47.76923 | 31011 ft | 405 kts | 131° |
| 2026-04-20 17:50 | -22.58386 | -47.74599 | 31003 ft | 392 kts | 131° |
| 2026-04-20 17:50 | -22.60076 | -47.72350 | 31006 ft | 379 kts | 131° |
| 2026-04-20 17:50 | -22.61713 | -47.70167 | 31003 ft | 366 kts | 131° |
| 2026-04-20 17:50 | -22.63273 | -47.68088 | 31005 ft | 354 kts | 131° |
| 2026-04-20 17:51 | -22.64798 | -47.66054 | 31001 ft | 343 kts | 131° |
| 2026-04-20 17:51 | -22.66275 | -47.64085 | 31006 ft | 331 kts | 131° |
| 2026-04-20 17:51 | -22.67704 | -47.62178 | 31007 ft | 324 kts | 131° |
| 2026-04-20 17:52 | -22.70611 | -47.58305 | 31053 ft | 340 kts | 131° |
| 2026-04-20 17:52 | -22.73627 | -47.54276 | 30799 ft | 344 kts | 131° |
| 2026-04-20 17:52 | -22.75163 | -47.52224 | 29953 ft | 355 kts | 130° |
| 2026-04-20 17:53 | -22.76730 | -47.50131 | 28786 ft | 369 kts | 130° |
| 2026-04-20 17:53 | -22.78378 | -47.47927 | 27516 ft | 385 kts | 130° |
| 2026-04-20 17:53 | -22.80097 | -47.45626 | 26185 ft | 400 kts | 130° |
| 2026-04-20 17:53 | -22.81870 | -47.43250 | 25037 ft | 409 kts | 130° |
| 2026-04-20 17:54 | -22.83660 | -47.40848 | 24214 ft | 407 kts | 130° |
| 2026-04-20 17:54 | -22.85430 | -47.38471 | 23559 ft | 401 kts | 130° |
| 2026-04-20 17:54 | -22.87170 | -47.36132 | 22841 ft | 393 kts | 130° |
| 2026-04-20 17:54 | -22.88845 | -47.33880 | 22184 ft | 385 kts | 130° |
| 2026-04-20 17:55 | -22.90536 | -47.31608 | 21433 ft | 379 kts | 130° |
| 2026-04-20 17:55 | -22.92186 | -47.29391 | 20681 ft | 375 kts | 130° |
| 2026-04-20 17:55 | -22.93798 | -47.27224 | 19972 ft | 372 kts | 130° |
| 2026-04-20 17:55 | -22.95428 | -47.25031 | 19435 ft | 373 kts | 130° |
| 2026-04-20 17:56 | -22.97044 | -47.22857 | 19097 ft | 367 kts | 130° |
| 2026-04-20 17:56 | -22.98628 | -47.20723 | 18662 ft | 359 kts | 130° |
| 2026-04-20 17:56 | -22.99663 | -47.19329 | 18221 ft | 357 kts | 130° |
| 2026-04-20 17:56 | -23.01238 | -47.17251 | 17503 ft | 355 kts | 135° |
| 2026-04-20 17:57 | -23.03201 | -47.15690 | 16854 ft | 348 kts | 155° |
| 2026-04-20 17:57 | -23.05441 | -47.14822 | 16416 ft | 340 kts | 167° |
| 2026-04-20 17:57 | -23.07743 | -47.14295 | 15938 ft | 337 kts | 169° |
| 2026-04-20 17:57 | -23.10038 | -47.13830 | 15443 ft | 333 kts | 169° |
| 2026-04-20 17:58 | -23.12310 | -47.13369 | 14967 ft | 333 kts | 169° |
| 2026-04-20 17:58 | -23.14594 | -47.12893 | 14451 ft | 336 kts | 169° |
| 2026-04-20 17:58 | -23.16898 | -47.12399 | 13951 ft | 339 kts | 169° |
| 2026-04-20 17:58 | -23.19211 | -47.11894 | 13401 ft | 338 kts | 168° |
| 2026-04-20 17:59 | -23.21508 | -47.11389 | 12840 ft | 337 kts | 168° |
| 2026-04-20 17:59 | -23.23801 | -47.10883 | 12335 ft | 335 kts | 168° |
| 2026-04-20 17:59 | -23.26076 | -47.10382 | 11891 ft | 333 kts | 168° |
| 2026-04-20 17:59 | -23.28333 | -47.09887 | 11498 ft | 328 kts | 169° |
| 2026-04-20 18:00 | -23.30567 | -47.09398 | 11106 ft | 325 kts | 169° |
| 2026-04-20 18:00 | -23.32773 | -47.08915 | 10716 ft | 322 kts | 169° |
| 2026-04-20 18:00 | -23.34958 | -47.08437 | 10349 ft | 319 kts | 169° |
| 2026-04-20 18:00 | -23.37098 | -47.07967 | 9978 ft | 317 kts | 169° |
| 2026-04-20 18:01 | -23.39202 | -47.07506 | 9999 ft | 301 kts | 168° |
| 2026-04-20 18:01 | -23.41120 | -47.06736 | 9924 ft | 290 kts | 147° |
| 2026-04-20 18:01 | -23.42561 | -47.05243 | 9712 ft | 286 kts | 128° |
| 2026-04-20 18:01 | -23.43470 | -47.03326 | 9399 ft | 287 kts | 110° |
| 2026-04-20 18:02 | -23.44047 | -47.01248 | 9091 ft | 286 kts | 108° |
| 2026-04-20 18:02 | -23.44574 | -46.99160 | 8762 ft | 285 kts | 107° |
| 2026-04-20 18:02 | -23.45092 | -46.97083 | 8466 ft | 284 kts | 107° |
| 2026-04-20 18:02 | -23.45616 | -46.95007 | 8114 ft | 283 kts | 107° |
| 2026-04-20 18:03 | -23.46144 | -46.92936 | 7812 ft | 283 kts | 107° |
| 2026-04-20 18:03 | -23.46675 | -46.90876 | 7503 ft | 282 kts | 107° |
| 2026-04-20 18:03 | -23.47200 | -46.88835 | 7324 ft | 276 kts | 106° |
| 2026-04-20 18:03 | -23.47713 | -46.86853 | 7297 ft | 265 kts | 107° |
| 2026-04-20 18:04 | -23.48199 | -46.84974 | 7120 ft | 255 kts | 107° |
| 2026-04-20 18:04 | -23.48663 | -46.83175 | 7060 ft | 237 kts | 106° |
| 2026-04-20 18:04 | -23.49096 | -46.81506 | 6876 ft | 222 kts | 107° |
| 2026-04-20 18:04 | -23.49504 | -46.79933 | 6566 ft | 215 kts | 106° |
| 2026-04-20 18:05 | -23.50289 | -46.76901 | 5845 ft | 202 kts | 107° |
| 2026-04-20 18:05 | -23.50662 | -46.75457 | 5443 ft | 199 kts | 107° |
| 2026-04-20 18:05 | -23.51087 | -46.74011 | 4956 ft | 195 kts | 119° |
| 2026-04-20 18:06 | -23.52002 | -46.73032 | 4678 ft | 183 kts | 147° |
| 2026-04-20 18:06 | -23.53025 | -46.72320 | 4490 ft | 169 kts | 147° |
| 2026-04-20 18:06 | -23.53977 | -46.71661 | 4311 ft | 154 kts | 148° |
| 2026-04-20 18:06 | -23.54822 | -46.71077 | 4232 ft | 136 kts | 149° |
| 2026-04-20 18:07 | -23.55632 | -46.70516 | 4069 ft | 139 kts | 148° |
| 2026-04-20 18:07 | -23.56442 | -46.69954 | 3866 ft | 135 kts | 148° |
| 2026-04-20 18:07 | -23.57217 | -46.69418 | 3737 ft | 129 kts | 149° |
| 2026-04-20 18:07 | -23.57975 | -46.68883 | 3537 ft | 129 kts | 148° |
| 2026-04-20 18:08 | -23.58730 | -46.68348 | 3357 ft | 132 kts | 150° |
| 2026-04-20 18:08 | -23.59514 | -46.67823 | 3218 ft | 130 kts | 149° |
| 2026-04-20 18:08 | -23.60289 | -46.67294 | 3046 ft | 134 kts | 149° |
| 2026-04-20 18:08 | -23.61059 | -46.66750 | 2847 ft | 130 kts | 150° |
| 2026-04-20 18:09 | -23.61814 | -46.66232 | 2688 ft | 128 kts | 150° |
| 2026-04-20 18:09 | -23.62560 | -46.65721 | 2604 ft | 111 kts | 148° |
| 2026-04-20 18:09 | -23.62932 | -46.65463 | 2608 ft | 42 kts | 148° |
| 2026-04-20 18:09 | -23.63143 | -46.65376 | 2607 ft | 23 kts | 204° |
| 2026-04-20 18:10 | -23.63125 | -46.65475 | 2601 ft | 6 kts | 329° |
| 2026-04-20 18:10 | -23.63092 | -46.65496 | 2601 ft | 5 kts | 328° |
| 2026-04-20 18:10 | -23.63060 | -46.65516 | 2601 ft | 5 kts | 344° |
| 2026-04-20 18:10 | -23.63023 | -46.65518 | 2602 ft | 5 kts | 355° |
| 2026-04-20 18:11 | -23.62988 | -46.65532 | 2603 ft | 5 kts | 326° |
| 2026-04-20 18:11 | -23.62954 | -46.65555 | 2602 ft | 6 kts | 329° |
| 2026-04-20 18:11 | -23.62917 | -46.65580 | 2602 ft | 6 kts | 328° |
| 2026-04-20 18:11 | -23.62878 | -46.65607 | 2602 ft | 7 kts | 326° |
| 2026-04-20 18:12 | -23.62837 | -46.65635 | 2602 ft | 7 kts | 328° |
| 2026-04-20 18:12 | -23.62796 | -46.65662 | 2602 ft | 7 kts | 328° |
| 2026-04-20 18:12 | -23.62755 | -46.65692 | 2602 ft | 7 kts | 327° |
| 2026-04-20 18:12 | -23.62712 | -46.65722 | 2601 ft | 7 kts | 327° |
| 2026-04-20 18:13 | -23.62667 | -46.65752 | 2601 ft | 8 kts | 329° |
| 2026-04-20 18:13 | -23.62621 | -46.65782 | 2601 ft | 8 kts | 328° |
| 2026-04-20 18:13 | -23.62578 | -46.65812 | 2601 ft | 7 kts | 327° |
| 2026-04-20 18:13 | -23.62568 | -46.65856 | 2600 ft | 7 kts | 231° |
| 2026-04-20 18:14 | -23.62585 | -46.65879 | 2600 ft | 0 kts | 238° |
| 2026-04-20 18:14 | -23.62588 | -46.65886 | 2600 ft | 4 kts | 240° |
| 2026-04-20 18:14 | -23.62597 | -46.65901 | 2600 ft | 0 kts | 237° |